Terminal Aerodrome Forecast
Issued by NWS

Home | Current Version | Previous Version | Text Only | Print | Product List | Glossary On
Versions: 1 2 3 4 5 6 7 8 9 10 11 12 13 14 15 16 17 18 19 20 21 22
273
FTUS44 KSJT 290558
TAFJCT
TAF
KJCT 290558Z 2906/3006 14013G21KT 6SM TSRA BKN050CB
     FM290630 20011G20KT P6SM -TSRA SCT040CB OVC100
     FM290800 23009KT P6SM SKC
     FM291500 26013G20KT P6SM SKC=

USA.gov is the U.S. government's official web portal to all federal, state and local government web resources and services.